sensor_id;sensor_type;location;lat;lon;timestamp;pressure;altitude;pressure_sealevel;temperature;humidity
54924;BME280;40825;52.270;20.984;2023-03-21T00:01:55;100411.75;;;8.00;99.56
54924;BME280;40825;52.270;20.984;2023-03-21T00:04:25;100410.73;;;8.00;99.22
54924;BME280;40825;52.270;20.984;2023-03-21T00:06:51;100409.13;;;8.00;99.48
54924;BME280;40825;52.270;20.984;2023-03-21T00:09:18;100407.27;;;7.99;99.79
54924;BME280;40825;52.270;20.984;2023-03-21T00:11:44;100404.94;;;7.97;99.33
54924;BME280;40825;52.270;20.984;2023-03-21T00:14:09;100404.80;;;7.97;99.78
54924;BME280;40825;52.270;20.984;2023-03-21T00:16:39;100401.66;;;7.96;99.91
54924;BME280;40825;52.270;20.984;2023-03-21T00:19:05;100402.27;;;7.96;99.56
54924;BME280;40825;52.270;20.984;2023-03-21T00:21:32;100396.02;;;7.95;99.72
54924;BME280;40825;52.270;20.984;2023-03-21T00:24:04;100393.18;;;7.93;99.93
54924;BME280;40825;52.270;20.984;2023-03-21T00:26:31;100392.85;;;7.93;99.87
54924;BME280;40825;52.270;20.984;2023-03-21T00:28:56;100393.25;;;7.91;99.63
54924;BME280;40825;52.270;20.984;2023-03-21T00:31:22;100393.19;;;7.90;99.66
54924;BME280;40825;52.270;20.984;2023-03-21T00:33:48;100392.23;;;7.89;99.47
54924;BME280;40825;52.270;20.984;2023-03-21T00:36:14;100391.96;;;7.86;99.96
54924;BME280;40825;52.270;20.984;2023-03-21T00:38:40;100388.46;;;7.85;99.18
54924;BME280;40825;52.270;20.984;2023-03-21T00:41:08;100388.44;;;7.83;99.57
54924;BME280;40825;52.270;20.984;2023-03-21T00:43:35;100391.16;;;7.82;99.67
54924;BME280;40825;52.270;20.984;2023-03-21T00:46:02;100395.48;;;7.82;99.74
54924;BME280;40825;52.270;20.984;2023-03-21T00:48:28;100394.91;;;7.79;100.00
54924;BME280;40825;52.270;20.984;2023-03-21T00:50:56;100392.22;;;7.78;99.92
54924;BME280;40825;52.270;20.984;2023-03-21T00:53:24;100390.63;;;7.77;99.64
54924;BME280;40825;52.270;20.984;2023-03-21T00:55:49;100392.32;;;7.76;100.00
54924;BME280;40825;52.270;20.984;2023-03-21T00:58:15;100391.23;;;7.74;99.77
54924;BME280;40825;52.270;20.984;2023-03-21T01:00:42;100391.02;;;7.73;99.94
54924;BME280;40825;52.270;20.984;2023-03-21T01:03:10;100390.23;;;7.72;99.94
54924;BME280;40825;52.270;20.984;2023-03-21T01:05:39;100386.07;;;7.71;100.00
54924;BME280;40825;52.270;20.984;2023-03-21T01:08:24;100384.08;;;7.70;99.55
54924;BME280;40825;52.270;20.984;2023-03-21T01:10:51;100384.85;;;7.69;99.83
54924;BME280;40825;52.270;20.984;2023-03-21T01:13:18;100385.91;;;7.68;99.89
54924;BME280;40825;52.270;20.984;2023-03-21T01:15:50;100384.36;;;7.66;99.96
54924;BME280;40825;52.270;20.984;2023-03-21T01:18:19;100384.54;;;7.64;99.92
54924;BME280;40825;52.270;20.984;2023-03-21T01:20:46;100383.41;;;7.63;99.47
54924;BME280;40825;52.270;20.984;2023-03-21T01:23:13;100380.69;;;7.62;99.81
54924;BME280;40825;52.270;20.984;2023-03-21T01:25:40;100382.95;;;7.61;100.00
54924;BME280;40825;52.270;20.984;2023-03-21T01:28:05;100377.51;;;7.61;100.00
54924;BME280;40825;52.270;20.984;2023-03-21T01:30:31;100377.38;;;7.60;100.00
54924;BME280;40825;52.270;20.984;2023-03-21T01:32:57;100375.48;;;7.60;100.00
54924;BME280;40825;52.270;20.984;2023-03-21T01:35:23;100374.20;;;7.58;100.00
54924;BME280;40825;52.270;20.984;2023-03-21T01:37:48;100373.77;;;7.57;99.88
54924;BME280;40825;52.270;20.984;2023-03-21T01:40:21;100373.04;;;7.56;99.60
54924;BME280;40825;52.270;20.984;2023-03-21T01:42:46;100370.73;;;7.53;99.97
54924;BME280;40825;52.270;20.984;2023-03-21T01:48:17;100368.25;;;7.48;100.00
54924;BME280;40825;52.270;20.984;2023-03-21T01:50:43;100366.48;;;7.45;100.00
54924;BME280;40825;52.270;20.984;2023-03-21T01:53:10;100367.38;;;7.43;100.00
54924;BME280;40825;52.270;20.984;2023-03-21T01:55:37;100363.23;;;7.42;100.00
54924;BME280;40825;52.270;20.984;2023-03-21T01:58:04;100361.91;;;7.41;100.00
54924;BME280;40825;52.270;20.984;2023-03-21T02:00:31;100356.92;;;7.41;100.00
54924;BME280;40825;52.270;20.984;2023-03-21T02:02:59;100356.52;;;7.42;99.94
54924;BME280;40825;52.270;20.984;2023-03-21T02:05:36;100359.95;;;7.41;100.00
54924;BME280;40825;52.270;20.984;2023-03-21T02:08:04;100355.80;;;7.40;100.00
54924;BME280;40825;52.270;20.984;2023-03-21T02:10:31;100351.84;;;7.41;99.86
54924;BME280;40825;52.270;20.984;2023-03-21T02:13:00;100354.36;;;7.42;100.00
54924;BME280;40825;52.270;20.984;2023-03-21T02:15:35;100354.86;;;7.42;99.91
54924;BME280;40825;52.270;20.984;2023-03-21T02:25:54;100357.23;;;7.40;100.00
54924;BME280;40825;52.270;20.984;2023-03-21T02:28:32;100360.14;;;7.39;100.00
54924;BME280;40825;52.270;20.984;2023-03-21T02:42:06;100363.95;;;7.36;100.00
54924;BME280;40825;52.270;20.984;2023-03-21T02:44:42;100367.40;;;7.37;100.00
54924;BME280;40825;52.270;20.984;2023-03-21T02:50:17;100369.79;;;7.36;100.00
54924;BME280;40825;52.270;20.984;2023-03-21T02:52:47;100365.44;;;7.35;100.00
54924;BME280;40825;52.270;20.984;2023-03-21T02:55:17;100364.71;;;7.35;100.00
54924;BME280;40825;52.270;20.984;2023-03-21T02:57:44;100366.16;;;7.36;99.98
54924;BME280;40825;52.270;20.984;2023-03-21T03:00:18;100366.08;;;7.36;99.89
54924;BME280;40825;52.270;20.984;2023-03-21T03:02:46;100368.19;;;7.37;99.98
54924;BME280;40825;52.270;20.984;2023-03-21T03:05:23;100365.34;;;7.36;100.00
54924;BME280;40825;52.270;20.984;2023-03-21T03:10:38;100371.49;;;7.33;100.00
54924;BME280;40825;52.270;20.984;2023-03-21T03:13:24;100377.53;;;7.33;100.00
54924;BME280;40825;52.270;20.984;2023-03-21T03:18:59;100381.13;;;7.33;99.63
54924;BME280;40825;52.270;20.984;2023-03-21T03:24:12;100379.70;;;7.33;99.91
54924;BME280;40825;52.270;20.984;2023-03-21T03:26:59;100382.65;;;7.33;100.00
54924;BME280;40825;52.270;20.984;2023-03-21T03:29:27;100382.02;;;7.34;100.00
54924;BME280;40825;52.270;20.984;2023-03-21T03:31:58;100379.77;;;7.32;100.00
54924;BME280;40825;52.270;20.984;2023-03-21T03:34:29;100380.24;;;7.31;100.00
54924;BME280;40825;52.270;20.984;2023-03-21T03:37:09;100382.01;;;7.29;100.00
54924;BME280;40825;52.270;20.984;2023-03-21T03:39:42;100384.04;;;7.28;100.00
54924;BME280;40825;52.270;20.984;2023-03-21T03:42:16;100379.82;;;7.28;100.00
54924;BME280;40825;52.270;20.984;2023-03-21T03:44:43;100382.88;;;7.27;100.00
54924;BME280;40825;52.270;20.984;2023-03-21T03:47:16;100385.56;;;7.27;100.00
54924;BME280;40825;52.270;20.984;2023-03-21T03:52:33;100385.55;;;7.24;100.00
54924;BME280;40825;52.270;20.984;2023-03-21T03:55:01;100386.61;;;7.23;100.00
54924;BME280;40825;52.270;20.984;2023-03-21T03:57:28;100390.66;;;7.23;100.00
54924;BME280;40825;52.270;20.984;2023-03-21T03:59:54;100392.45;;;7.24;100.00
54924;BME280;40825;52.270;20.984;2023-03-21T04:02:20;100392.39;;;7.23;100.00
54924;BME280;40825;52.270;20.984;2023-03-21T04:04:46;100391.25;;;7.22;100.00
54924;BME280;40825;52.270;20.984;2023-03-21T04:07:12;100386.25;;;7.21;100.00
54924;BME280;40825;52.270;20.984;2023-03-21T04:09:37;100384.93;;;7.20;100.00
54924;BME280;40825;52.270;20.984;2023-03-21T04:12:03;100385.16;;;7.20;100.00
54924;BME280;40825;52.270;20.984;2023-03-21T04:14:28;100388.42;;;7.21;100.00
54924;BME280;40825;52.270;20.984;2023-03-21T04:16:54;100388.81;;;7.21;100.00
54924;BME280;40825;52.270;20.984;2023-03-21T04:19:20;100385.58;;;7.23;99.97
54924;BME280;40825;52.270;20.984;2023-03-21T04:21:46;100386.64;;;7.22;100.00
54924;BME280;40825;52.270;20.984;2023-03-21T04:24:12;100389.34;;;7.20;100.00
54924;BME280;40825;52.270;20.984;2023-03-21T04:26:39;100387.00;;;7.19;100.00
54924;BME280;40825;52.270;20.984;2023-03-21T04:29:04;100387.25;;;7.19;100.00
54924;BME280;40825;52.270;20.984;2023-03-21T04:31:31;100389.88;;;7.19;100.00
54924;BME280;40825;52.270;20.984;2023-03-21T04:34:00;100387.28;;;7.20;100.00
54924;BME280;40825;52.270;20.984;2023-03-21T04:36:26;100385.33;;;7.20;100.00
54924;BME280;40825;52.270;20.984;2023-03-21T04:38:58;100385.55;;;7.21;100.00
54924;BME280;40825;52.270;20.984;2023-03-21T04:41:27;100384.63;;;7.22;100.00
54924;BME280;40825;52.270;20.984;2023-03-21T04:43:53;100386.41;;;7.21;100.00
54924;BME280;40825;52.270;20.984;2023-03-21T04:46:19;100389.00;;;7.22;100.00
54924;BME280;40825;52.270;20.984;2023-03-21T04:48:44;100392.45;;;7.23;100.00
54924;BME280;40825;52.270;20.984;2023-03-21T04:51:11;100393.19;;;7.21;100.00
54924;BME280;40825;52.270;20.984;2023-03-21T04:53:37;100394.21;;;7.20;100.00
54924;BME280;40825;52.270;20.984;2023-03-21T04:56:04;100394.75;;;7.20;100.00
54924;BME280;40825;52.270;20.984;2023-03-21T04:58:30;100392.50;;;7.21;100.00
54924;BME280;40825;52.270;20.984;2023-03-21T05:00:56;100393.45;;;7.22;100.00
54924;BME280;40825;52.270;20.984;2023-03-21T05:03:23;100393.79;;;7.23;100.00
54924;BME280;40825;52.270;20.984;2023-03-21T05:05:48;100397.16;;;7.25;100.00
54924;BME280;40825;52.270;20.984;2023-03-21T05:08:15;100393.02;;;7.24;100.00
54924;BME280;40825;52.270;20.984;2023-03-21T05:10:41;100396.31;;;7.21;100.00
54924;BME280;40825;52.270;20.984;2023-03-21T05:13:07;100401.59;;;7.20;100.00
54924;BME280;40825;52.270;20.984;2023-03-21T05:15:32;100404.98;;;7.20;100.00
54924;BME280;40825;52.270;20.984;2023-03-21T05:17:58;100407.19;;;7.19;100.00
54924;BME280;40825;52.270;20.984;2023-03-21T05:20:24;100403.31;;;7.17;100.00
54924;BME280;40825;52.270;20.984;2023-03-21T05:22:50;100402.86;;;7.18;100.00
54924;BME280;40825;52.270;20.984;2023-03-21T05:25:16;100403.15;;;7.21;100.00
54924;BME280;40825;52.270;20.984;2023-03-21T05:27:45;100404.53;;;7.22;100.00
54924;BME280;40825;52.270;20.984;2023-03-21T05:30:18;100408.64;;;7.23;100.00
54924;BME280;40825;52.270;20.984;2023-03-21T05:32:44;100411.25;;;7.22;100.00
54924;BME280;40825;52.270;20.984;2023-03-21T05:35:10;100413.58;;;7.17;100.00
54924;BME280;40825;52.270;20.984;2023-03-21T05:37:35;100411.42;;;7.16;100.00
54924;BME280;40825;52.270;20.984;2023-03-21T05:40:04;100413.48;;;7.17;100.00
54924;BME280;40825;52.270;20.984;2023-03-21T05:42:31;100416.95;;;7.19;100.00
54924;BME280;40825;52.270;20.984;2023-03-21T05:44:57;100417.68;;;7.22;100.00
54924;BME280;40825;52.270;20.984;2023-03-21T05:47:22;100421.80;;;7.21;99.98
54924;BME280;40825;52.270;20.984;2023-03-21T05:49:48;100425.80;;;7.21;100.00
54924;BME280;40825;52.270;20.984;2023-03-21T05:52:14;100423.69;;;7.20;100.00
54924;BME280;40825;52.270;20.984;2023-03-21T05:54:40;100424.77;;;7.23;100.00
54924;BME280;40825;52.270;20.984;2023-03-21T05:57:07;100426.70;;;7.24;100.00
54924;BME280;40825;52.270;20.984;2023-03-21T05:59:32;100429.36;;;7.23;99.96
54924;BME280;40825;52.270;20.984;2023-03-21T06:01:58;100433.52;;;7.26;100.00
54924;BME280;40825;52.270;20.984;2023-03-21T06:04:23;100438.91;;;7.27;100.00
54924;BME280;40825;52.270;20.984;2023-03-21T06:06:49;100439.98;;;7.25;99.90
54924;BME280;40825;52.270;20.984;2023-03-21T06:09:16;100440.70;;;7.25;100.00
54924;BME280;40825;52.270;20.984;2023-03-21T06:11:46;100448.10;;;7.27;99.87
54924;BME280;40825;52.270;20.984;2023-03-21T06:14:12;100447.31;;;7.26;99.86
54924;BME280;40825;52.270;20.984;2023-03-21T06:16:38;100448.64;;;7.22;99.71
54924;BME280;40825;52.270;20.984;2023-03-21T06:19:03;100448.42;;;7.19;99.82
54924;BME280;40825;52.270;20.984;2023-03-21T06:21:29;100454.37;;;7.16;99.77
54924;BME280;40825;52.270;20.984;2023-03-21T06:23:55;100452.84;;;7.18;99.89
54924;BME280;40825;52.270;20.984;2023-03-21T06:26:20;100453.97;;;7.19;99.69
54924;BME280;40825;52.270;20.984;2023-03-21T06:28:51;100453.01;;;7.18;99.88
54924;BME280;40825;52.270;20.984;2023-03-21T06:31:17;100456.39;;;7.18;100.00
54924;BME280;40825;52.270;20.984;2023-03-21T06:33:45;100458.21;;;7.24;99.75
54924;BME280;40825;52.270;20.984;2023-03-21T06:36:10;100458.44;;;7.26;99.74
54924;BME280;40825;52.270;20.984;2023-03-21T06:38:36;100458.23;;;7.30;99.66
54924;BME280;40825;52.270;20.984;2023-03-21T06:41:03;100459.29;;;7.32;99.48
54924;BME280;40825;52.270;20.984;2023-03-21T06:43:30;100459.73;;;7.29;99.42
54924;BME280;40825;52.270;20.984;2023-03-21T06:45:56;100460.77;;;7.28;99.38
54924;BME280;40825;52.270;20.984;2023-03-21T06:48:22;100462.89;;;7.24;99.69
54924;BME280;40825;52.270;20.984;2023-03-21T06:50:48;100465.02;;;7.24;99.80
54924;BME280;40825;52.270;20.984;2023-03-21T06:53:15;100467.40;;;7.25;99.66
54924;BME280;40825;52.270;20.984;2023-03-21T06:55:40;100468.00;;;7.25;99.89
54924;BME280;40825;52.270;20.984;2023-03-21T06:58:06;100470.47;;;7.26;99.73
54924;BME280;40825;52.270;20.984;2023-03-21T07:00:31;100472.80;;;7.24;99.66
54924;BME280;40825;52.270;20.984;2023-03-21T07:02:57;100475.56;;;7.24;99.70
54924;BME280;40825;52.270;20.984;2023-03-21T07:05:23;100477.15;;;7.24;99.89
54924;BME280;40825;52.270;20.984;2023-03-21T07:07:49;100483.79;;;7.26;99.23
54924;BME280;40825;52.270;20.984;2023-03-21T07:10:15;100484.28;;;7.23;99.43
54924;BME280;40825;52.270;20.984;2023-03-21T07:12:41;100485.95;;;7.24;99.44
54924;BME280;40825;52.270;20.984;2023-03-21T07:15:07;100487.77;;;7.27;99.37
54924;BME280;40825;52.270;20.984;2023-03-21T07:17:33;100487.43;;;7.30;99.77
54924;BME280;40825;52.270;20.984;2023-03-21T07:19:58;100486.27;;;7.36;99.42
54924;BME280;40825;52.270;20.984;2023-03-21T07:22:24;100485.97;;;7.40;98.78
54924;BME280;40825;52.270;20.984;2023-03-21T07:24:50;100488.23;;;7.42;98.47
54924;BME280;40825;52.270;20.984;2023-03-21T07:27:17;100485.02;;;7.44;98.79
54924;BME280;40825;52.270;20.984;2023-03-21T07:29:43;100485.79;;;7.50;99.03
54924;BME280;40825;52.270;20.984;2023-03-21T07:32:09;100487.91;;;7.57;99.02
54924;BME280;40825;52.270;20.984;2023-03-21T07:34:35;100487.85;;;7.67;99.45
54924;BME280;40825;52.270;20.984;2023-03-21T07:37:02;100486.86;;;7.76;99.15
54924;BME280;40825;52.270;20.984;2023-03-21T07:39:28;100490.35;;;7.85;99.55
54924;BME280;40825;52.270;20.984;2023-03-21T07:41:54;100487.22;;;7.99;99.51
54924;BME280;40825;52.270;20.984;2023-03-21T07:44:23;100483.30;;;8.16;98.75
54924;BME280;40825;52.270;20.984;2023-03-21T07:46:49;100482.70;;;8.31;97.10
54924;BME280;40825;52.270;20.984;2023-03-21T07:49:15;100483.53;;;8.38;96.90
54924;BME280;40825;52.270;20.984;2023-03-21T07:51:40;100485.66;;;8.45;96.85
54924;BME280;40825;52.270;20.984;2023-03-21T07:54:06;100483.28;;;8.48;96.31
54924;BME280;40825;52.270;20.984;2023-03-21T07:56:32;100486.19;;;8.46;96.82
54924;BME280;40825;52.270;20.984;2023-03-21T07:58:58;100488.82;;;8.55;97.42
54924;BME280;40825;52.270;20.984;2023-03-21T08:01:24;100492.54;;;8.67;97.51
54924;BME280;40825;52.270;20.984;2023-03-21T08:03:51;100492.27;;;8.66;95.28
54924;BME280;40825;52.270;20.984;2023-03-21T08:06:19;100497.89;;;8.57;94.82
54924;BME280;40825;52.270;20.984;2023-03-21T08:08:45;100500.06;;;8.46;95.17
54924;BME280;40825;52.270;20.984;2023-03-21T08:11:11;100502.09;;;8.39;96.45
54924;BME280;40825;52.270;20.984;2023-03-21T08:13:36;100505.60;;;8.39;95.42
54924;BME280;40825;52.270;20.984;2023-03-21T08:16:03;100507.42;;;8.29;95.00
54924;BME280;40825;52.270;20.984;2023-03-21T08:18:28;100504.84;;;8.25;95.94
54924;BME280;40825;52.270;20.984;2023-03-21T08:20:56;100506.55;;;8.31;95.40
54924;BME280;40825;52.270;20.984;2023-03-21T08:23:23;100503.80;;;8.33;93.90
54924;BME280;40825;52.270;20.984;2023-03-21T08:25:53;100507.67;;;8.29;93.17
54924;BME280;40825;52.270;20.984;2023-03-21T08:28:20;100501.90;;;8.29;93.54
54924;BME280;40825;52.270;20.984;2023-03-21T08:30:46;100502.67;;;8.34;92.52
54924;BME280;40825;52.270;20.984;2023-03-21T08:33:12;100508.44;;;8.30;92.91
54924;BME280;40825;52.270;20.984;2023-03-21T08:35:38;100506.95;;;8.36;92.88
54924;BME280;40825;52.270;20.984;2023-03-21T08:38:05;100507.20;;;8.41;93.53
54924;BME280;40825;52.270;20.984;2023-03-21T08:40:31;100504.92;;;8.48;94.14
54924;BME280;40825;52.270;20.984;2023-03-21T08:42:57;100510.45;;;8.59;93.44
54924;BME280;40825;52.270;20.984;2023-03-21T08:45:24;100514.33;;;8.72;93.91
54924;BME280;40825;52.270;20.984;2023-03-21T08:47:49;100513.69;;;8.90;93.39
54924;BME280;40825;52.270;20.984;2023-03-21T08:50:18;100514.30;;;9.11;93.53
54924;BME280;40825;52.270;20.984;2023-03-21T08:52:44;100518.29;;;9.29;92.81
54924;BME280;40825;52.270;20.984;2023-03-21T08:55:10;100521.94;;;9.30;91.48
54924;BME280;40825;52.270;20.984;2023-03-21T08:57:37;100518.89;;;9.29;92.42
54924;BME280;40825;52.270;20.984;2023-03-21T09:00:04;100525.77;;;9.31;91.61
54924;BME280;40825;52.270;20.984;2023-03-21T09:02:42;100526.56;;;9.27;91.53
54924;BME280;40825;52.270;20.984;2023-03-21T09:05:10;100527.23;;;9.27;91.72
54924;BME280;40825;52.270;20.984;2023-03-21T09:07:40;100524.92;;;9.29;91.54
54924;BME280;40825;52.270;20.984;2023-03-21T09:10:08;100528.73;;;9.25;90.11
54924;BME280;40825;52.270;20.984;2023-03-21T09:12:34;100529.54;;;9.13;89.51
54924;BME280;40825;52.270;20.984;2023-03-21T09:15:00;100536.48;;;9.05;89.07
54924;BME280;40825;52.270;20.984;2023-03-21T09:17:30;100536.35;;;8.94;89.43
54924;BME280;40825;52.270;20.984;2023-03-21T09:19:57;100538.91;;;8.87;89.19
54924;BME280;40825;52.270;20.984;2023-03-21T09:22:27;100541.46;;;8.85;89.31
54924;BME280;40825;52.270;20.984;2023-03-21T09:24:53;100539.69;;;8.88;89.56
54924;BME280;40825;52.270;20.984;2023-03-21T09:27:19;100543.52;;;8.93;89.39
54924;BME280;40825;52.270;20.984;2023-03-21T09:29:49;100548.20;;;8.94;87.67
54924;BME280;40825;52.270;20.984;2023-03-21T09:32:15;100546.84;;;8.89;88.72
54924;BME280;40825;52.270;20.984;2023-03-21T09:34:43;100546.25;;;8.93;89.23
54924;BME280;40825;52.270;20.984;2023-03-21T09:37:10;100547.95;;;8.97;88.86
54924;BME280;40825;52.270;20.984;2023-03-21T09:39:41;100550.91;;;8.99;89.15
54924;BME280;40825;52.270;20.984;2023-03-21T09:42:32;100552.25;;;8.96;86.85
54924;BME280;40825;52.270;20.984;2023-03-21T09:47:40;100552.11;;;8.93;87.80
54924;BME280;40825;52.270;20.984;2023-03-21T09:50:17;100552.71;;;8.97;87.85
54924;BME280;40825;52.270;20.984;2023-03-21T09:53:00;100553.20;;;9.01;88.15
54924;BME280;40825;52.270;20.984;2023-03-21T09:55:35;100552.55;;;9.03;88.75
54924;BME280;40825;52.270;20.984;2023-03-21T09:58:06;100554.07;;;9.08;88.98
54924;BME280;40825;52.270;20.984;2023-03-21T10:00:36;100551.42;;;9.10;88.66
54924;BME280;40825;52.270;20.984;2023-03-21T10:03:07;100553.04;;;9.08;87.95
54924;BME280;40825;52.270;20.984;2023-03-21T10:05:41;100555.71;;;9.02;87.66
54924;BME280;40825;52.270;20.984;2023-03-21T10:08:19;100555.73;;;8.95;87.88
54924;BME280;40825;52.270;20.984;2023-03-21T10:10:59;100556.05;;;8.89;87.81
54924;BME280;40825;52.270;20.984;2023-03-21T10:13:29;100558.89;;;8.81;87.35
54924;BME280;40825;52.270;20.984;2023-03-21T10:15:59;100557.65;;;8.74;86.98
54924;BME280;40825;52.270;20.984;2023-03-21T10:18:26;100561.68;;;8.60;87.62
54924;BME280;40825;52.270;20.984;2023-03-21T10:20:54;100566.90;;;8.55;87.98
54924;BME280;40825;52.270;20.984;2023-03-21T10:23:25;100569.66;;;8.43;88.91
54924;BME280;40825;52.270;20.984;2023-03-21T10:25:59;100574.80;;;8.39;88.85
54924;BME280;40825;52.270;20.984;2023-03-21T10:28:30;100573.29;;;8.33;88.83
54924;BME280;40825;52.270;20.984;2023-03-21T10:31:02;100576.45;;;8.27;89.33
54924;BME280;40825;52.270;20.984;2023-03-21T10:33:42;100577.00;;;8.22;90.70
54924;BME280;40825;52.270;20.984;2023-03-21T10:36:21;100575.90;;;8.29;89.80
54924;BME280;40825;52.270;20.984;2023-03-21T10:38:55;100576.09;;;8.42;90.35
54924;BME280;40825;52.270;20.984;2023-03-21T10:41:22;100576.50;;;8.54;90.18
54924;BME280;40825;52.270;20.984;2023-03-21T10:44:07;100577.25;;;8.60;89.99
54924;BME280;40825;52.270;20.984;2023-03-21T10:46:34;100577.36;;;8.64;89.96
54924;BME280;40825;52.270;20.984;2023-03-21T10:49:00;100574.41;;;8.74;90.52
54924;BME280;40825;52.270;20.984;2023-03-21T10:51:30;100574.66;;;8.91;90.76
54924;BME280;40825;52.270;20.984;2023-03-21T10:54:04;100574.80;;;9.12;90.86
54924;BME280;40825;52.270;20.984;2023-03-21T10:56:35;100573.23;;;9.33;89.89
54924;BME280;40825;52.270;20.984;2023-03-21T10:59:02;100572.09;;;9.46;89.97
54924;BME280;40825;52.270;20.984;2023-03-21T11:01:38;100570.78;;;9.52;88.58
54924;BME280;40825;52.270;20.984;2023-03-21T11:04:15;100569.09;;;9.54;88.75
54924;BME280;40825;52.270;20.984;2023-03-21T11:06:43;100571.92;;;9.63;88.59
54924;BME280;40825;52.270;20.984;2023-03-21T11:09:16;100567.63;;;9.70;87.81
54924;BME280;40825;52.270;20.984;2023-03-21T11:12:02;100571.94;;;9.72;87.29
54924;BME280;40825;52.270;20.984;2023-03-21T11:14:43;100571.48;;;9.69;86.92
54924;BME280;40825;52.270;20.984;2023-03-21T11:17:24;100570.41;;;9.58;86.58
54924;BME280;40825;52.270;20.984;2023-03-21T11:19:56;100570.39;;;9.47;87.28
54924;BME280;40825;52.270;20.984;2023-03-21T11:22:24;100571.02;;;9.51;87.35
54924;BME280;40825;52.270;20.984;2023-03-21T11:24:58;100570.54;;;9.65;88.06
54924;BME280;40825;52.270;20.984;2023-03-21T11:27:26;100571.88;;;9.84;87.72
54924;BME280;40825;52.270;20.984;2023-03-21T11:29:55;100565.63;;;10.03;88.52
54924;BME280;40825;52.270;20.984;2023-03-21T11:32:35;100559.05;;;10.30;88.80
54924;BME280;40825;52.270;20.984;2023-03-21T11:35:05;100557.61;;;10.50;88.98
54924;BME280;40825;52.270;20.984;2023-03-21T11:37:37;100557.40;;;10.57;87.71
54924;BME280;40825;52.270;20.984;2023-03-21T11:40:23;100555.06;;;10.54;88.05
54924;BME280;40825;52.270;20.984;2023-03-21T11:45:31;100546.66;;;10.78;88.59
54924;BME280;40825;52.270;20.984;2023-03-21T11:47:59;100547.39;;;10.95;88.06
54924;BME280;40825;52.270;20.984;2023-03-21T11:50:37;100547.19;;;10.91;87.30
54924;BME280;40825;52.270;20.984;2023-03-21T11:56:27;100547.71;;;10.78;84.97
54924;BME280;40825;52.270;20.984;2023-03-21T11:59:14;100550.19;;;10.68;84.62
54924;BME280;40825;52.270;20.984;2023-03-21T12:01:52;100553.26;;;10.57;85.18
54924;BME280;40825;52.270;20.984;2023-03-21T12:06:59;100550.73;;;10.59;84.62
54924;BME280;40825;52.270;20.984;2023-03-21T12:12:29;100546.89;;;10.41;82.29
54924;BME280;40825;52.270;20.984;2023-03-21T12:15:05;100545.95;;;10.44;83.58
54924;BME280;40825;52.270;20.984;2023-03-21T12:21:14;100545.90;;;10.60;82.71
54924;BME280;40825;52.270;20.984;2023-03-21T12:29:25;100535.89;;;10.68;82.36
54924;BME280;40825;52.270;20.984;2023-03-21T12:45:36;100527.27;;;10.33;78.81
54924;BME280;40825;52.270;20.984;2023-03-21T12:50:52;100529.56;;;10.38;80.01
54924;BME280;40825;52.270;20.984;2023-03-21T12:53:33;100529.68;;;10.50;81.22
54924;BME280;40825;52.270;20.984;2023-03-21T12:56:05;100528.86;;;10.69;80.51
54924;BME280;40825;52.270;20.984;2023-03-21T12:58:43;100526.70;;;10.77;78.61
54924;BME280;40825;52.270;20.984;2023-03-21T13:01:11;100525.88;;;10.82;79.43
54924;BME280;40825;52.270;20.984;2023-03-21T13:03:41;100526.38;;;10.86;79.15
54924;BME280;40825;52.270;20.984;2023-03-21T13:06:12;100529.23;;;10.88;79.28
54924;BME280;40825;52.270;20.984;2023-03-21T13:08:59;100527.29;;;10.86;77.85
54924;BME280;40825;52.270;20.984;2023-03-21T13:11:29;100523.27;;;10.74;76.90
54924;BME280;40825;52.270;20.984;2023-03-21T13:14:20;100527.31;;;10.58;76.94
54924;BME280;40825;52.270;20.984;2023-03-21T13:16:52;100528.58;;;10.43;76.73
54924;BME280;40825;52.270;20.984;2023-03-21T13:19:32;100529.52;;;10.31;78.01
54924;BME280;40825;52.270;20.984;2023-03-21T13:22:20;100529.25;;;10.30;78.75
54924;BME280;40825;52.270;20.984;2023-03-21T13:25:36;100526.48;;;10.43;77.94
54924;BME280;40825;52.270;20.984;2023-03-21T13:27:43;100527.94;;;10.49;79.77
54924;BME280;40825;52.270;20.984;2023-03-21T13:30:24;100528.55;;;10.54;79.08
54924;BME280;40825;52.270;20.984;2023-03-21T13:32:57;100527.13;;;10.48;79.02
54924;BME280;40825;52.270;20.984;2023-03-21T13:35:37;100523.16;;;10.38;78.92
54924;BME280;40825;52.270;20.984;2023-03-21T13:38:32;100520.11;;;10.27;79.01
54924;BME280;40825;52.270;20.984;2023-03-21T13:41:10;100519.89;;;10.29;79.65
54924;BME280;40825;52.270;20.984;2023-03-21T13:43:47;100522.31;;;10.36;79.44
54924;BME280;40825;52.270;20.984;2023-03-21T13:48:54;100519.11;;;10.55;79.55
54924;BME280;40825;52.270;20.984;2023-03-21T13:56:52;100516.69;;;10.75;78.70
54924;BME280;40825;52.270;20.984;2023-03-21T14:02:15;100517.08;;;10.80;77.36
54924;BME280;40825;52.270;20.984;2023-03-21T14:04:43;100516.61;;;10.75;77.30
54924;BME280;40825;52.270;20.984;2023-03-21T14:07:23;100514.60;;;10.70;77.55
54924;BME280;40825;52.270;20.984;2023-03-21T14:09:53;100515.32;;;10.65;78.06
54924;BME280;40825;52.270;20.984;2023-03-21T14:12:24;100509.46;;;10.58;79.03
54924;BME280;40825;52.270;20.984;2023-03-21T14:15:05;100511.25;;;10.57;78.78
54924;BME280;40825;52.270;20.984;2023-03-21T14:17:32;100516.20;;;10.64;79.55
54924;BME280;40825;52.270;20.984;2023-03-21T14:23:07;100517.03;;;10.71;78.66
54924;BME280;40825;52.270;20.984;2023-03-21T14:25:38;100517.02;;;10.69;79.87
54924;BME280;40825;52.270;20.984;2023-03-21T14:28:17;100520.71;;;10.65;79.57